sensor_id;sensor_type;location;lat;lon;timestamp;P1;durP1;ratioP1;P2;durP2;ratioP2
51824;SDS011;37879;52.986;6.282;2023-01-29T00:02:18;16.60;;;9.30;;
51824;SDS011;37879;52.986;6.282;2023-01-29T00:04:44;16.55;;;9.10;;
51824;SDS011;37879;52.986;6.282;2023-01-29T00:07:09;15.80;;;9.85;;
51824;SDS011;37879;52.986;6.282;2023-01-29T00:09:35;16.38;;;8.95;;
51824;SDS011;37879;52.986;6.282;2023-01-29T00:12:01;16.70;;;10.13;;
51824;SDS011;37879;52.986;6.282;2023-01-29T00:14:26;15.95;;;9.85;;
51824;SDS011;37879;52.986;6.282;2023-01-29T00:16:52;17.75;;;10.00;;
51824;SDS011;37879;52.986;6.282;2023-01-29T00:19:18;15.70;;;9.52;;
51824;SDS011;37879;52.986;6.282;2023-01-29T00:21:44;16.92;;;9.75;;
51824;SDS011;37879;52.986;6.282;2023-01-29T00:24:10;14.90;;;8.80;;
51824;SDS011;37879;52.986;6.282;2023-01-29T00:26:37;19.58;;;9.43;;
51824;SDS011;37879;52.986;6.282;2023-01-29T00:29:04;15.40;;;9.18;;
51824;SDS011;37879;52.986;6.282;2023-01-29T00:31:30;18.42;;;10.38;;
51824;SDS011;37879;52.986;6.282;2023-01-29T00:33:56;16.20;;;9.73;;
51824;SDS011;37879;52.986;6.282;2023-01-29T00:36:22;15.75;;;9.95;;
51824;SDS011;37879;52.986;6.282;2023-01-29T00:38:56;15.20;;;9.05;;
51824;SDS011;37879;52.986;6.282;2023-01-29T00:41:28;16.67;;;10.23;;
51824;SDS011;37879;52.986;6.282;2023-01-29T00:44:14;16.92;;;10.18;;
51824;SDS011;37879;52.986;6.282;2023-01-29T00:46:58;20.30;;;11.05;;
51824;SDS011;37879;52.986;6.282;2023-01-29T00:49:24;17.63;;;10.38;;
51824;SDS011;37879;52.986;6.282;2023-01-29T00:51:50;18.67;;;11.25;;
51824;SDS011;37879;52.986;6.282;2023-01-29T00:54:35;19.90;;;10.68;;
51824;SDS011;37879;52.986;6.282;2023-01-29T00:57:01;18.02;;;10.40;;
51824;SDS011;37879;52.986;6.282;2023-01-29T00:59:28;19.67;;;11.32;;
51824;SDS011;37879;52.986;6.282;2023-01-29T01:01:54;20.67;;;11.55;;
51824;SDS011;37879;52.986;6.282;2023-01-29T01:04:38;17.25;;;10.00;;
51824;SDS011;37879;52.986;6.282;2023-01-29T01:07:04;17.38;;;10.45;;
51824;SDS011;37879;52.986;6.282;2023-01-29T01:09:29;22.38;;;11.40;;
51824;SDS011;37879;52.986;6.282;2023-01-29T01:12:14;19.38;;;11.32;;
51824;SDS011;37879;52.986;6.282;2023-01-29T01:14:39;20.15;;;11.38;;
51824;SDS011;37879;52.986;6.282;2023-01-29T01:17:07;17.25;;;11.13;;
51824;SDS011;37879;52.986;6.282;2023-01-29T01:19:33;18.83;;;10.38;;
51824;SDS011;37879;52.986;6.282;2023-01-29T01:21:59;18.40;;;10.38;;
51824;SDS011;37879;52.986;6.282;2023-01-29T01:24:25;21.50;;;11.45;;
51824;SDS011;37879;52.986;6.282;2023-01-29T01:26:50;19.75;;;11.52;;
51824;SDS011;37879;52.986;6.282;2023-01-29T01:29:16;18.33;;;11.10;;
51824;SDS011;37879;52.986;6.282;2023-01-29T01:31:42;18.95;;;11.65;;
51824;SDS011;37879;52.986;6.282;2023-01-29T01:34:07;17.15;;;10.27;;
51824;SDS011;37879;52.986;6.282;2023-01-29T01:36:33;22.42;;;11.05;;
51824;SDS011;37879;52.986;6.282;2023-01-29T01:38:59;16.67;;;9.90;;
51824;SDS011;37879;52.986;6.282;2023-01-29T01:41:24;15.88;;;9.45;;
51824;SDS011;37879;52.986;6.282;2023-01-29T01:46:19;15.40;;;8.82;;
51824;SDS011;37879;52.986;6.282;2023-01-29T01:48:48;15.90;;;8.82;;
51824;SDS011;37879;52.986;6.282;2023-01-29T01:51:19;16.88;;;9.60;;
51824;SDS011;37879;52.986;6.282;2023-01-29T01:53:57;15.57;;;8.15;;
51824;SDS011;37879;52.986;6.282;2023-01-29T01:56:30;15.20;;;9.05;;
51824;SDS011;37879;52.986;6.282;2023-01-29T01:59:05;17.97;;;11.50;;
51824;SDS011;37879;52.986;6.282;2023-01-29T02:01:33;16.17;;;9.50;;
51824;SDS011;37879;52.986;6.282;2023-01-29T02:04:01;18.23;;;9.55;;
51824;SDS011;37879;52.986;6.282;2023-01-29T02:06:48;13.45;;;8.32;;
51824;SDS011;37879;52.986;6.282;2023-01-29T02:09:38;15.50;;;9.15;;
51824;SDS011;37879;52.986;6.282;2023-01-29T02:12:16;12.23;;;8.18;;
51824;SDS011;37879;52.986;6.282;2023-01-29T02:14:43;15.35;;;8.68;;
51824;SDS011;37879;52.986;6.282;2023-01-29T02:17:10;19.85;;;10.00;;
51824;SDS011;37879;52.986;6.282;2023-01-29T02:30:39;14.60;;;7.88;;
51824;SDS011;37879;52.986;6.282;2023-01-29T02:36:16;12.60;;;7.50;;
51824;SDS011;37879;52.986;6.282;2023-01-29T02:39:16;16.48;;;9.30;;
51824;SDS011;37879;52.986;6.282;2023-01-29T02:42:12;14.48;;;7.72;;
51824;SDS011;37879;52.986;6.282;2023-01-29T02:44:58;13.55;;;8.25;;
51824;SDS011;37879;52.986;6.282;2023-01-29T02:47:34;14.80;;;9.27;;
51824;SDS011;37879;52.986;6.282;2023-01-29T02:52:43;16.38;;;8.70;;
51824;SDS011;37879;52.986;6.282;2023-01-29T02:56:01;13.85;;;8.10;;
51824;SDS011;37879;52.986;6.282;2023-01-29T03:01:29;14.38;;;9.05;;
51824;SDS011;37879;52.986;6.282;2023-01-29T03:03:58;13.77;;;7.85;;
51824;SDS011;37879;52.986;6.282;2023-01-29T03:06:31;14.35;;;8.30;;
51824;SDS011;37879;52.986;6.282;2023-01-29T03:12:12;17.17;;;9.75;;
51824;SDS011;37879;52.986;6.282;2023-01-29T03:14:53;18.77;;;9.38;;
51824;SDS011;37879;52.986;6.282;2023-01-29T03:17:47;14.50;;;9.02;;
51824;SDS011;37879;52.986;6.282;2023-01-29T03:20:28;13.32;;;8.50;;
51824;SDS011;37879;52.986;6.282;2023-01-29T03:23:00;14.57;;;8.43;;
51824;SDS011;37879;52.986;6.282;2023-01-29T03:25:35;13.98;;;8.32;;
51824;SDS011;37879;52.986;6.282;2023-01-29T03:28:21;18.65;;;10.88;;
51824;SDS011;37879;52.986;6.282;2023-01-29T03:31:07;16.27;;;9.88;;
51824;SDS011;37879;52.986;6.282;2023-01-29T03:33:59;17.08;;;9.35;;
51824;SDS011;37879;52.986;6.282;2023-01-29T03:36:33;15.70;;;9.35;;
51824;SDS011;37879;52.986;6.282;2023-01-29T03:39:07;16.95;;;10.25;;
51824;SDS011;37879;52.986;6.282;2023-01-29T03:41:36;17.58;;;9.27;;
51824;SDS011;37879;52.986;6.282;2023-01-29T03:44:27;17.63;;;9.25;;
51824;SDS011;37879;52.986;6.282;2023-01-29T03:46:55;16.13;;;8.55;;
51824;SDS011;37879;52.986;6.282;2023-01-29T03:52:41;20.48;;;9.60;;
51824;SDS011;37879;52.986;6.282;2023-01-29T03:57:45;15.27;;;9.57;;
51824;SDS011;37879;52.986;6.282;2023-01-29T04:00:39;14.20;;;8.73;;
51824;SDS011;37879;52.986;6.282;2023-01-29T04:03:15;20.25;;;10.40;;
51824;SDS011;37879;52.986;6.282;2023-01-29T04:05:50;18.73;;;9.93;;
51824;SDS011;37879;52.986;6.282;2023-01-29T04:10:51;15.82;;;9.30;;
51824;SDS011;37879;52.986;6.282;2023-01-29T04:13:21;16.48;;;9.35;;
51824;SDS011;37879;52.986;6.282;2023-01-29T04:15:49;17.75;;;9.80;;
51824;SDS011;37879;52.986;6.282;2023-01-29T04:18:22;17.15;;;10.60;;
51824;SDS011;37879;52.986;6.282;2023-01-29T04:20:48;17.77;;;10.18;;
51824;SDS011;37879;52.986;6.282;2023-01-29T04:23:23;18.17;;;10.55;;
51824;SDS011;37879;52.986;6.282;2023-01-29T04:25:59;19.48;;;11.32;;
51824;SDS011;37879;52.986;6.282;2023-01-29T04:29:05;18.23;;;10.00;;
51824;SDS011;37879;52.986;6.282;2023-01-29T04:31:28;18.48;;;9.68;;
51824;SDS011;37879;52.986;6.282;2023-01-29T04:36:58;20.35;;;11.15;;
51824;SDS011;37879;52.986;6.282;2023-01-29T04:40:01;16.67;;;10.23;;
51824;SDS011;37879;52.986;6.282;2023-01-29T04:42:46;19.38;;;10.13;;
51824;SDS011;37879;52.986;6.282;2023-01-29T04:45:28;17.05;;;10.45;;
51824;SDS011;37879;52.986;6.282;2023-01-29T04:47:59;18.67;;;12.15;;
51824;SDS011;37879;52.986;6.282;2023-01-29T04:50:43;17.65;;;10.90;;
51824;SDS011;37879;52.986;6.282;2023-01-29T04:53:53;18.77;;;11.73;;
51824;SDS011;37879;52.986;6.282;2023-01-29T04:56:27;17.08;;;10.38;;
51824;SDS011;37879;52.986;6.282;2023-01-29T04:59:04;20.07;;;12.13;;
51824;SDS011;37879;52.986;6.282;2023-01-29T05:01:33;17.95;;;10.45;;
51824;SDS011;37879;52.986;6.282;2023-01-29T05:04:01;18.73;;;10.55;;
51824;SDS011;37879;52.986;6.282;2023-01-29T05:06:31;17.98;;;10.52;;
51824;SDS011;37879;52.986;6.282;2023-01-29T05:08:57;21.58;;;10.88;;
51824;SDS011;37879;52.986;6.282;2023-01-29T05:11:24;17.42;;;10.65;;
51824;SDS011;37879;52.986;6.282;2023-01-29T05:13:50;20.77;;;12.38;;
51824;SDS011;37879;52.986;6.282;2023-01-29T05:16:26;20.38;;;12.32;;
51824;SDS011;37879;52.986;6.282;2023-01-29T05:18:54;23.60;;;13.55;;
51824;SDS011;37879;52.986;6.282;2023-01-29T05:21:20;24.55;;;14.82;;
51824;SDS011;37879;52.986;6.282;2023-01-29T05:24:04;21.38;;;12.70;;
51824;SDS011;37879;52.986;6.282;2023-01-29T05:26:32;22.65;;;13.73;;
51824;SDS011;37879;52.986;6.282;2023-01-29T05:29:16;20.58;;;12.02;;
51824;SDS011;37879;52.986;6.282;2023-01-29T05:31:42;23.80;;;13.18;;
51824;SDS011;37879;52.986;6.282;2023-01-29T05:34:09;23.17;;;13.73;;
51824;SDS011;37879;52.986;6.282;2023-01-29T05:36:34;20.40;;;13.35;;
51824;SDS011;37879;52.986;6.282;2023-01-29T05:39:00;27.73;;;16.02;;
51824;SDS011;37879;52.986;6.282;2023-01-29T05:41:25;26.10;;;14.40;;
51824;SDS011;37879;52.986;6.282;2023-01-29T05:43:51;24.48;;;13.68;;
51824;SDS011;37879;52.986;6.282;2023-01-29T05:46:17;23.15;;;14.02;;
51824;SDS011;37879;52.986;6.282;2023-01-29T05:48:42;25.38;;;16.00;;
51824;SDS011;37879;52.986;6.282;2023-01-29T05:51:08;23.02;;;14.50;;
51824;SDS011;37879;52.986;6.282;2023-01-29T05:53:33;24.88;;;14.55;;
51824;SDS011;37879;52.986;6.282;2023-01-29T05:56:00;26.55;;;16.27;;
51824;SDS011;37879;52.986;6.282;2023-01-29T05:58:26;30.40;;;16.20;;
51824;SDS011;37879;52.986;6.282;2023-01-29T06:00:53;23.40;;;14.52;;
51824;SDS011;37879;52.986;6.282;2023-01-29T06:03:19;26.42;;;15.07;;
51824;SDS011;37879;52.986;6.282;2023-01-29T06:05:44;21.73;;;14.43;;
51824;SDS011;37879;52.986;6.282;2023-01-29T06:08:10;22.60;;;13.95;;
51824;SDS011;37879;52.986;6.282;2023-01-29T06:10:36;23.52;;;15.45;;
51824;SDS011;37879;52.986;6.282;2023-01-29T06:13:01;24.70;;;13.93;;
51824;SDS011;37879;52.986;6.282;2023-01-29T06:15:27;23.55;;;14.60;;
51824;SDS011;37879;52.986;6.282;2023-01-29T06:17:53;22.60;;;14.70;;
51824;SDS011;37879;52.986;6.282;2023-01-29T06:20:19;28.42;;;16.48;;
51824;SDS011;37879;52.986;6.282;2023-01-29T06:22:45;25.08;;;15.48;;
51824;SDS011;37879;52.986;6.282;2023-01-29T06:25:11;24.08;;;15.02;;
51824;SDS011;37879;52.986;6.282;2023-01-29T06:27:36;21.60;;;14.55;;
51824;SDS011;37879;52.986;6.282;2023-01-29T06:30:03;25.67;;;15.35;;
51824;SDS011;37879;52.986;6.282;2023-01-29T06:32:29;25.95;;;15.93;;
51824;SDS011;37879;52.986;6.282;2023-01-29T06:34:55;27.98;;;16.75;;
51824;SDS011;37879;52.986;6.282;2023-01-29T06:37:20;29.13;;;17.88;;
51824;SDS011;37879;52.986;6.282;2023-01-29T06:39:46;26.20;;;17.73;;
51824;SDS011;37879;52.986;6.282;2023-01-29T06:42:12;25.48;;;15.90;;
51824;SDS011;37879;52.986;6.282;2023-01-29T06:44:37;25.67;;;15.98;;
51824;SDS011;37879;52.986;6.282;2023-01-29T06:47:03;28.90;;;17.88;;
51824;SDS011;37879;52.986;6.282;2023-01-29T06:49:28;29.83;;;18.13;;
51824;SDS011;37879;52.986;6.282;2023-01-29T06:51:54;28.05;;;17.55;;
51824;SDS011;37879;52.986;6.282;2023-01-29T06:54:20;28.08;;;17.67;;
51824;SDS011;37879;52.986;6.282;2023-01-29T06:56:45;32.20;;;19.95;;
51824;SDS011;37879;52.986;6.282;2023-01-29T06:59:11;32.30;;;20.50;;
51824;SDS011;37879;52.986;6.282;2023-01-29T07:01:40;30.67;;;19.33;;
51824;SDS011;37879;52.986;6.282;2023-01-29T07:04:08;27.90;;;18.58;;
51824;SDS011;37879;52.986;6.282;2023-01-29T07:06:34;31.08;;;19.80;;
51824;SDS011;37879;52.986;6.282;2023-01-29T07:09:01;31.35;;;19.50;;
51824;SDS011;37879;52.986;6.282;2023-01-29T07:11:27;28.85;;;18.95;;
51824;SDS011;37879;52.986;6.282;2023-01-29T07:13:53;28.90;;;19.15;;
51824;SDS011;37879;52.986;6.282;2023-01-29T07:16:18;28.95;;;20.05;;
51824;SDS011;37879;52.986;6.282;2023-01-29T07:18:44;31.10;;;19.75;;
51824;SDS011;37879;52.986;6.282;2023-01-29T07:21:10;27.83;;;18.67;;
51824;SDS011;37879;52.986;6.282;2023-01-29T07:23:35;35.58;;;21.52;;
51824;SDS011;37879;52.986;6.282;2023-01-29T07:26:01;25.27;;;18.38;;
51824;SDS011;37879;52.986;6.282;2023-01-29T07:28:28;32.53;;;20.92;;
51824;SDS011;37879;52.986;6.282;2023-01-29T07:30:57;28.98;;;18.48;;
51824;SDS011;37879;52.986;6.282;2023-01-29T07:33:23;34.60;;;19.27;;
51824;SDS011;37879;52.986;6.282;2023-01-29T07:35:50;32.28;;;20.92;;
51824;SDS011;37879;52.986;6.282;2023-01-29T07:38:16;37.10;;;21.00;;
51824;SDS011;37879;52.986;6.282;2023-01-29T07:40:42;30.85;;;20.45;;
51824;SDS011;37879;52.986;6.282;2023-01-29T07:43:08;28.85;;;19.58;;
51824;SDS011;37879;52.986;6.282;2023-01-29T07:45:35;31.92;;;19.85;;
51824;SDS011;37879;52.986;6.282;2023-01-29T07:48:01;29.88;;;17.92;;
51824;SDS011;37879;52.986;6.282;2023-01-29T07:50:29;30.15;;;18.60;;
51824;SDS011;37879;52.986;6.282;2023-01-29T07:52:55;32.10;;;20.05;;
51824;SDS011;37879;52.986;6.282;2023-01-29T07:55:22;35.22;;;21.42;;
51824;SDS011;37879;52.986;6.282;2023-01-29T07:57:53;33.95;;;20.52;;
51824;SDS011;37879;52.986;6.282;2023-01-29T08:00:20;34.55;;;18.85;;
51824;SDS011;37879;52.986;6.282;2023-01-29T08:02:46;33.53;;;20.13;;
51824;SDS011;37879;52.986;6.282;2023-01-29T08:05:11;30.50;;;18.90;;
51824;SDS011;37879;52.986;6.282;2023-01-29T08:07:37;25.80;;;18.40;;
51824;SDS011;37879;52.986;6.282;2023-01-29T08:10:03;32.20;;;19.13;;
51824;SDS011;37879;52.986;6.282;2023-01-29T08:12:29;31.48;;;18.77;;
51824;SDS011;37879;52.986;6.282;2023-01-29T08:14:54;28.98;;;18.40;;
51824;SDS011;37879;52.986;6.282;2023-01-29T08:17:20;27.80;;;18.58;;
51824;SDS011;37879;52.986;6.282;2023-01-29T08:19:46;28.13;;;16.58;;
51824;SDS011;37879;52.986;6.282;2023-01-29T08:22:11;32.28;;;19.13;;
51824;SDS011;37879;52.986;6.282;2023-01-29T08:24:39;30.15;;;19.65;;
51824;SDS011;37879;52.986;6.282;2023-01-29T08:27:04;31.15;;;19.45;;
51824;SDS011;37879;52.986;6.282;2023-01-29T08:29:30;30.88;;;18.88;;
51824;SDS011;37879;52.986;6.282;2023-01-29T08:31:56;28.10;;;18.67;;
51824;SDS011;37879;52.986;6.282;2023-01-29T08:34:21;31.83;;;20.67;;
51824;SDS011;37879;52.986;6.282;2023-01-29T08:36:47;34.60;;;19.95;;
51824;SDS011;37879;52.986;6.282;2023-01-29T08:39:12;31.25;;;19.40;;
51824;SDS011;37879;52.986;6.282;2023-01-29T08:41:38;30.52;;;19.20;;
51824;SDS011;37879;52.986;6.282;2023-01-29T08:44:04;32.20;;;19.13;;
51824;SDS011;37879;52.986;6.282;2023-01-29T08:46:30;33.20;;;19.65;;
51824;SDS011;37879;52.986;6.282;2023-01-29T08:48:56;30.52;;;19.15;;
51824;SDS011;37879;52.986;6.282;2023-01-29T08:51:23;33.53;;;20.17;;
51824;SDS011;37879;52.986;6.282;2023-01-29T08:53:49;34.40;;;21.27;;
51824;SDS011;37879;52.986;6.282;2023-01-29T08:56:15;29.65;;;18.30;;
51824;SDS011;37879;52.986;6.282;2023-01-29T08:58:40;32.72;;;18.70;;
51824;SDS011;37879;52.986;6.282;2023-01-29T09:01:07;34.78;;;21.33;;
51824;SDS011;37879;52.986;6.282;2023-01-29T09:03:34;34.10;;;19.15;;
51824;SDS011;37879;52.986;6.282;2023-01-29T09:05:59;32.72;;;18.75;;
51824;SDS011;37879;52.986;6.282;2023-01-29T09:08:25;40.42;;;20.20;;
51824;SDS011;37879;52.986;6.282;2023-01-29T09:10:51;37.53;;;20.23;;
51824;SDS011;37879;52.986;6.282;2023-01-29T09:13:16;33.15;;;18.35;;
51824;SDS011;37879;52.986;6.282;2023-01-29T09:15:42;32.55;;;18.67;;
51824;SDS011;37879;52.986;6.282;2023-01-29T09:18:08;29.67;;;18.38;;
51824;SDS011;37879;52.986;6.282;2023-01-29T09:20:33;31.58;;;17.33;;
51824;SDS011;37879;52.986;6.282;2023-01-29T09:23:08;35.75;;;19.27;;
51824;SDS011;37879;52.986;6.282;2023-01-29T09:25:35;34.95;;;19.70;;
51824;SDS011;37879;52.986;6.282;2023-01-29T09:28:01;36.33;;;19.40;;
51824;SDS011;37879;52.986;6.282;2023-01-29T09:30:27;35.05;;;19.55;;
51824;SDS011;37879;52.986;6.282;2023-01-29T09:32:52;35.75;;;18.95;;
51824;SDS011;37879;52.986;6.282;2023-01-29T09:35:18;31.20;;;20.20;;
51824;SDS011;37879;52.986;6.282;2023-01-29T09:37:47;36.55;;;20.77;;
51824;SDS011;37879;52.986;6.282;2023-01-29T09:40:31;36.55;;;20.67;;
51824;SDS011;37879;52.986;6.282;2023-01-29T09:43:28;38.53;;;22.40;;
51824;SDS011;37879;52.986;6.282;2023-01-29T09:45:52;32.17;;;18.75;;
51824;SDS011;37879;52.986;6.282;2023-01-29T09:48:29;33.90;;;19.48;;
51824;SDS011;37879;52.986;6.282;2023-01-29T09:50:59;35.88;;;17.45;;
51824;SDS011;37879;52.986;6.282;2023-01-29T09:53:39;34.63;;;19.20;;
51824;SDS011;37879;52.986;6.282;2023-01-29T09:56:15;36.15;;;19.73;;
51824;SDS011;37879;52.986;6.282;2023-01-29T09:58:44;36.92;;;19.27;;
51824;SDS011;37879;52.986;6.282;2023-01-29T10:09:27;34.53;;;19.95;;
51824;SDS011;37879;52.986;6.282;2023-01-29T10:12:38;31.58;;;19.45;;
51824;SDS011;37879;52.986;6.282;2023-01-29T10:23:37;33.03;;;19.48;;
51824;SDS011;37879;52.986;6.282;2023-01-29T10:26:12;33.67;;;19.67;;
51824;SDS011;37879;52.986;6.282;2023-01-29T10:28:44;33.15;;;18.75;;
51824;SDS011;37879;52.986;6.282;2023-01-29T10:31:16;43.47;;;20.83;;
51824;SDS011;37879;52.986;6.282;2023-01-29T10:33:51;40.03;;;19.30;;
51824;SDS011;37879;52.986;6.282;2023-01-29T10:36:20;35.97;;;18.10;;
51824;SDS011;37879;52.986;6.282;2023-01-29T10:38:50;40.90;;;21.05;;
51824;SDS011;37879;52.986;6.282;2023-01-29T10:41:18;51.30;;;21.10;;
51824;SDS011;37879;52.986;6.282;2023-01-29T10:44:16;36.35;;;19.95;;
51824;SDS011;37879;52.986;6.282;2023-01-29T10:52:37;36.05;;;19.48;;
51824;SDS011;37879;52.986;6.282;2023-01-29T11:00:23;37.78;;;20.52;;
51824;SDS011;37879;52.986;6.282;2023-01-29T11:02:52;38.88;;;21.35;;
51824;SDS011;37879;52.986;6.282;2023-01-29T11:05:19;36.60;;;21.55;;
51824;SDS011;37879;52.986;6.282;2023-01-29T11:08:06;39.40;;;19.63;;
51824;SDS011;37879;52.986;6.282;2023-01-29T11:10:37;34.28;;;19.02;;
51824;SDS011;37879;52.986;6.282;2023-01-29T11:13:12;35.43;;;20.70;;
51824;SDS011;37879;52.986;6.282;2023-01-29T11:15:40;32.22;;;18.15;;
51824;SDS011;37879;52.986;6.282;2023-01-29T11:18:12;38.13;;;21.00;;
51824;SDS011;37879;52.986;6.282;2023-01-29T11:20:43;37.92;;;21.35;;
51824;SDS011;37879;52.986;6.282;2023-01-29T11:23:22;35.50;;;21.05;;
51824;SDS011;37879;52.986;6.282;2023-01-29T11:25:54;36.25;;;20.02;;
51824;SDS011;37879;52.986;6.282;2023-01-29T11:28:37;38.88;;;21.38;;
51824;SDS011;37879;52.986;6.282;2023-01-29T11:31:15;35.38;;;18.40;;
51824;SDS011;37879;52.986;6.282;2023-01-29T11:33:45;34.42;;;18.58;;
51824;SDS011;37879;52.986;6.282;2023-01-29T11:39:14;33.03;;;20.30;;
51824;SDS011;37879;52.986;6.282;2023-01-29T11:41:52;30.60;;;17.80;;
51824;SDS011;37879;52.986;6.282;2023-01-29T11:44:18;33.72;;;18.75;;
51824;SDS011;37879;52.986;6.282;2023-01-29T11:46:46;42.72;;;20.33;;
51824;SDS011;37879;52.986;6.282;2023-01-29T11:49:20;32.10;;;17.40;;
51824;SDS011;37879;52.986;6.282;2023-01-29T11:51:58;29.23;;;17.70;;
51824;SDS011;37879;52.986;6.282;2023-01-29T11:54:28;32.90;;;19.92;;
51824;SDS011;37879;52.986;6.282;2023-01-29T11:57:00;31.98;;;18.33;;
51824;SDS011;37879;52.986;6.282;2023-01-29T11:59:43;32.85;;;18.38;;
51824;SDS011;37879;52.986;6.282;2023-01-29T12:02:22;29.42;;;17.70;;
51824;SDS011;37879;52.986;6.282;2023-01-29T12:04:55;31.27;;;17.48;;
51824;SDS011;37879;52.986;6.282;2023-01-29T12:07:26;33.38;;;19.63;;
51824;SDS011;37879;52.986;6.282;2023-01-29T12:09:56;32.42;;;19.67;;
51824;SDS011;37879;52.986;6.282;2023-01-29T12:12:31;29.05;;;17.90;;
51824;SDS011;37879;52.986;6.282;2023-01-29T12:15:08;32.60;;;18.67;;
51824;SDS011;37879;52.986;6.282;2023-01-29T12:17:41;32.50;;;19.13;;
51824;SDS011;37879;52.986;6.282;2023-01-29T12:20:13;34.05;;;19.48;;
51824;SDS011;37879;52.986;6.282;2023-01-29T12:22:56;31.35;;;19.30;;
51824;SDS011;37879;52.986;6.282;2023-01-29T12:31:10;31.52;;;18.30;;
51824;SDS011;37879;52.986;6.282;2023-01-29T12:39:02;32.42;;;20.02;;
51824;SDS011;37879;52.986;6.282;2023-01-29T12:41:36;30.33;;;18.17;;
51824;SDS011;37879;52.986;6.282;2023-01-29T12:44:37;35.85;;;18.55;;
51824;SDS011;37879;52.986;6.282;2023-01-29T12:47:11;30.23;;;17.65;;
51824;SDS011;37879;52.986;6.282;2023-01-29T12:49:59;35.25;;;18.90;;
51824;SDS011;37879;52.986;6.282;2023-01-29T12:57:57;35.92;;;18.77;;
51824;SDS011;37879;52.986;6.282;2023-01-29T13:06:07;30.00;;;18.20;;
51824;SDS011;37879;52.986;6.282;2023-01-29T13:08:50;28.00;;;17.73;;
51824;SDS011;37879;52.986;6.282;2023-01-29T13:11:20;26.60;;;17.27;;
51824;SDS011;37879;52.986;6.282;2023-01-29T13:13:50;27.40;;;16.92;;
51824;SDS011;37879;52.986;6.282;2023-01-29T13:16:20;28.73;;;17.10;;
51824;SDS011;37879;52.986;6.282;2023-01-29T13:18:50;32.00;;;18.20;;
51824;SDS011;37879;52.986;6.282;2023-01-29T13:21:21;32.47;;;17.75;;
51824;SDS011;37879;52.986;6.282;2023-01-29T13:24:13;29.63;;;17.92;;
51824;SDS011;37879;52.986;6.282;2023-01-29T13:26:40;31.95;;;18.70;;
51824;SDS011;37879;52.986;6.282;2023-01-29T13:29:22;30.27;;;18.00;;
51824;SDS011;37879;52.986;6.282;2023-01-29T13:31:53;29.15;;;17.27;;
51824;SDS011;37879;52.986;6.282;2023-01-29T13:37:02;29.38;;;16.70;;
51824;SDS011;37879;52.986;6.282;2023-01-29T13:39:37;28.35;;;17.58;;
51824;SDS011;37879;52.986;6.282;2023-01-29T13:42:17;32.42;;;19.40;;
51824;SDS011;37879;52.986;6.282;2023-01-29T13:44:46;32.67;;;19.85;;
51824;SDS011;37879;52.986;6.282;2023-01-29T13:47:24;31.33;;;18.25;;
51824;SDS011;37879;52.986;6.282;2023-01-29T13:50:05;32.42;;;19.38;;
51824;SDS011;37879;52.986;6.282;2023-01-29T13:52:42;34.40;;;19.20;;
51824;SDS011;37879;52.986;6.282;2023-01-29T14:02:45;36.70;;;19.73;;
51824;SDS011;37879;52.986;6.282;2023-01-29T14:05:50;31.13;;;17.90;;
51824;SDS011;37879;52.986;6.282;2023-01-29T14:13:41;35.90;;;20.13;;
51824;SDS011;37879;52.986;6.282;2023-01-29T14:18:34;32.83;;;19.67;;
51824;SDS011;37879;52.986;6.282;2023-01-29T14:21:04;35.10;;;20.77;;
51824;SDS011;37879;52.986;6.282;2023-01-29T14:23:54;35.78;;;19.77;;
51824;SDS011;37879;52.986;6.282;2023-01-29T14:29:23;33.28;;;18.92;;
51824;SDS011;37879;52.986;6.282;2023-01-29T14:31:57;32.65;;;19.90;;
51824;SDS011;37879;52.986;6.282;2023-01-29T14:34:34;36.65;;;20.13;;
51824;SDS011;37879;52.986;6.282;2023-01-29T14:39:43;35.47;;;19.52;;
51824;SDS011;37879;52.986;6.282;2023-01-29T14:42:26;37.58;;;22.02;;
51824;SDS011;37879;52.986;6.282;2023-01-29T14:44:59;34.08;;;21.38;;
51824;SDS011;37879;52.986;6.282;2023-01-29T14:53:00;35.47;;;20.55;;
51824;SDS011;37879;52.986;6.282;2023-01-29T14:55:49;34.75;;;19.63;;
51824;SDS011;37879;52.986;6.282;2023-01-29T14:58:32;39.70;;;21.42;;
51824;SDS011;37879;52.986;6.282;2023-01-29T15:01:03;41.72;;;24.00;;
51824;SDS011;37879;52.986;6.282;2023-01-29T15:06:25;34.55;;;20.92;;
51824;SDS011;37879;52.986;6.282;2023-01-29T15:08:59;33.85;;;20.10;;
51824;SDS011;37879;52.986;6.282;2023-01-29T15:11:48;34.20;;;20.27;;
51824;SDS011;37879;52.986;6.282;2023-01-29T15:14:21;37.45;;;21.20;;
51824;SDS011;37879;52.986;6.282;2023-01-29T15:19:52;38.72;;;22.27;;
51824;SDS011;37879;52.986;6.282;2023-01-29T15:22:21;37.25;;;20.42;;
51824;SDS011;37879;52.986;6.282;2023-01-29T15:27:48;41.85;;;23.10;;
51824;SDS011;37879;52.986;6.282;2023-01-29T15:30:33;36.67;;;20.52;;
51824;SDS011;37879;52.986;6.282;2023-01-29T15:33:00;39.83;;;22.25;;
51824;SDS011;37879;52.986;6.282;2023-01-29T15:35:34;39.40;;;23.75;;
51824;SDS011;37879;52.986;6.282;2023-01-29T15:38:06;41.45;;;21.67;;
51824;SDS011;37879;52.986;6.282;2023-01-29T15:40:39;40.10;;;23.27;;
51824;SDS011;37879;52.986;6.282;2023-01-29T15:43:41;43.15;;;23.85;;
51824;SDS011;37879;52.986;6.282;2023-01-29T15:46:05;32.88;;;19.08;;
51824;SDS011;37879;52.986;6.282;2023-01-29T15:48:37;40.35;;;22.13;;
51824;SDS011;37879;52.986;6.282;2023-01-29T15:51:09;39.65;;;20.80;;
51824;SDS011;37879;52.986;6.282;2023-01-29T15:53:41;43.50;;;24.00;;
51824;SDS011;37879;52.986;6.282;2023-01-29T15:56:17;39.55;;;20.90;;
51824;SDS011;37879;52.986;6.282;2023-01-29T15:58:49;37.42;;;22.20;;
51824;SDS011;37879;52.986;6.282;2023-01-29T16:01:15;44.30;;;23.63;;
51824;SDS011;37879;52.986;6.282;2023-01-29T16:03:42;46.40;;;24.13;;
51824;SDS011;37879;52.986;6.282;2023-01-29T16:06:09;41.17;;;22.75;;
51824;SDS011;37879;52.986;6.282;2023-01-29T16:08:35;43.03;;;24.75;;
51824;SDS011;37879;52.986;6.282;2023-01-29T16:11:04;51.42;;;25.67;;
51824;SDS011;37879;52.986;6.282;2023-01-29T16:13:33;50.60;;;25.52;;
51824;SDS011;37879;52.986;6.282;2023-01-29T16:16:01;48.25;;;25.50;;
51824;SDS011;37879;52.986;6.282;2023-01-29T16:20:57;44.90;;;23.52;;
51824;SDS011;37879;52.986;6.282;2023-01-29T16:23:29;41.20;;;23.00;;
51824;SDS011;37879;52.986;6.282;2023-01-29T16:26:12;39.08;;;23.85;;
51824;SDS011;37879;52.986;6.282;2023-01-29T16:28:42;42.20;;;23.55;;
51824;SDS011;37879;52.986;6.282;2023-01-29T16:31:09;44.13;;;26.00;;
51824;SDS011;37879;52.986;6.282;2023-01-29T16:33:36;44.88;;;25.35;;
51824;SDS011;37879;52.986;6.282;2023-01-29T16:36:23;45.00;;;24.30;;
51824;SDS011;37879;52.986;6.282;2023-01-29T16:38:52;46.97;;;25.13;;
51824;SDS011;37879;52.986;6.282;2023-01-29T16:41:32;40.83;;;22.73;;
51824;SDS011;37879;52.986;6.282;2023-01-29T16:44:22;45.33;;;25.08;;
51824;SDS011;37879;52.986;6.282;2023-01-29T16:46:56;44.42;;;22.30;;
51824;SDS011;37879;52.986;6.282;2023-01-29T16:57:37;41.05;;;23.77;;
51824;SDS011;37879;52.986;6.282;2023-01-29T17:00:24;41.47;;;24.05;;
51824;SDS011;37879;52.986;6.282;2023-01-29T17:02:55;40.67;;;21.77;;
51824;SDS011;37879;52.986;6.282;2023-01-29T17:05:32;45.85;;;25.23;;
51824;SDS011;37879;52.986;6.282;2023-01-29T17:08:00;42.00;;;23.55;;
51824;SDS011;37879;52.986;6.282;2023-01-29T17:10:27;41.05;;;22.25;;